sensor_id;sensor_type;location;lat;lon;timestamp;P1;durP1;ratioP1;P2;durP2;ratioP2
19374;SDS011;9823;50.936;4.046;2023-04-03T00:01:06;20.20;;;12.63;;
19374;SDS011;9823;50.936;4.046;2023-04-03T00:03:32;27.87;;;13.67;;
19374;SDS011;9823;50.936;4.046;2023-04-03T00:05:59;20.60;;;12.30;;
19374;SDS011;9823;50.936;4.046;2023-04-03T00:08:25;23.80;;;14.50;;
19374;SDS011;9823;50.936;4.046;2023-04-03T00:10:51;25.73;;;13.07;;
19374;SDS011;9823;50.936;4.046;2023-04-03T00:13:17;20.10;;;13.50;;
19374;SDS011;9823;50.936;4.046;2023-04-03T00:15:46;20.17;;;11.80;;
19374;SDS011;9823;50.936;4.046;2023-04-03T00:18:14;20.73;;;12.37;;
19374;SDS011;9823;50.936;4.046;2023-04-03T00:20:40;25.47;;;13.60;;
19374;SDS011;9823;50.936;4.046;2023-04-03T00:23:06;23.47;;;13.00;;
19374;SDS011;9823;50.936;4.046;2023-04-03T00:25:33;28.83;;;13.77;;
19374;SDS011;9823;50.936;4.046;2023-04-03T00:27:59;22.07;;;12.43;;
19374;SDS011;9823;50.936;4.046;2023-04-03T00:30:28;24.67;;;13.23;;
19374;SDS011;9823;50.936;4.046;2023-04-03T00:32:54;28.60;;;12.13;;
19374;SDS011;9823;50.936;4.046;2023-04-03T00:35:21;21.97;;;12.07;;
19374;SDS011;9823;50.936;4.046;2023-04-03T00:37:47;21.50;;;11.40;;
19374;SDS011;9823;50.936;4.046;2023-04-03T00:40:14;18.47;;;10.73;;
19374;SDS011;9823;50.936;4.046;2023-04-03T00:42:41;40.33;;;14.53;;
19374;SDS011;9823;50.936;4.046;2023-04-03T00:47:36;40.23;;;14.47;;
19374;SDS011;9823;50.936;4.046;2023-04-03T00:50:04;49.67;;;16.90;;
19374;SDS011;9823;50.936;4.046;2023-04-03T00:52:30;55.77;;;18.07;;
19374;SDS011;9823;50.936;4.046;2023-04-03T00:54:58;39.43;;;14.67;;
19374;SDS011;9823;50.936;4.046;2023-04-03T00:57:26;44.17;;;13.60;;
19374;SDS011;9823;50.936;4.046;2023-04-03T00:59:54;27.33;;;11.60;;
19374;SDS011;9823;50.936;4.046;2023-04-03T01:02:23;54.43;;;16.77;;
19374;SDS011;9823;50.936;4.046;2023-04-03T01:04:49;24.27;;;9.73;;
19374;SDS011;9823;50.936;4.046;2023-04-03T01:09:44;35.20;;;12.07;;
19374;SDS011;9823;50.936;4.046;2023-04-03T01:14:49;21.80;;;9.90;;
19374;SDS011;9823;50.936;4.046;2023-04-03T01:17:25;31.33;;;12.70;;
19374;SDS011;9823;50.936;4.046;2023-04-03T01:19:56;27.13;;;12.23;;
19374;SDS011;9823;50.936;4.046;2023-04-03T01:22:30;44.87;;;15.47;;
19374;SDS011;9823;50.936;4.046;2023-04-03T01:24:59;42.30;;;14.30;;
19374;SDS011;9823;50.936;4.046;2023-04-03T01:27:27;50.67;;;15.47;;
19374;SDS011;9823;50.936;4.046;2023-04-03T01:29:56;27.23;;;10.70;;
19374;SDS011;9823;50.936;4.046;2023-04-03T01:32:22;28.00;;;10.03;;
19374;SDS011;9823;50.936;4.046;2023-04-03T01:34:50;21.53;;;8.80;;
19374;SDS011;9823;50.936;4.046;2023-04-03T01:37:16;23.20;;;11.30;;
19374;SDS011;9823;50.936;4.046;2023-04-03T01:39:42;45.43;;;16.13;;
19374;SDS011;9823;50.936;4.046;2023-04-03T01:42:10;20.83;;;10.00;;
19374;SDS011;9823;50.936;4.046;2023-04-03T01:44:37;14.00;;;8.43;;
19374;SDS011;9823;50.936;4.046;2023-04-03T01:47:05;16.00;;;9.33;;
19374;SDS011;9823;50.936;4.046;2023-04-03T01:49:34;15.43;;;8.33;;
19374;SDS011;9823;50.936;4.046;2023-04-03T01:52:00;15.93;;;9.07;;
19374;SDS011;9823;50.936;4.046;2023-04-03T01:54:26;23.33;;;9.53;;
19374;SDS011;9823;50.936;4.046;2023-04-03T01:56:54;20.20;;;9.93;;
19374;SDS011;9823;50.936;4.046;2023-04-03T01:59:23;18.77;;;8.73;;
19374;SDS011;9823;50.936;4.046;2023-04-03T02:01:51;23.50;;;9.70;;
19374;SDS011;9823;50.936;4.046;2023-04-03T02:04:17;13.40;;;7.47;;
19374;SDS011;9823;50.936;4.046;2023-04-03T02:06:43;23.20;;;9.03;;
19374;SDS011;9823;50.936;4.046;2023-04-03T02:09:10;34.40;;;11.83;;
19374;SDS011;9823;50.936;4.046;2023-04-03T02:11:38;28.40;;;11.23;;
19374;SDS011;9823;50.936;4.046;2023-04-03T02:14:07;26.97;;;9.80;;
19374;SDS011;9823;50.936;4.046;2023-04-03T02:16:33;22.00;;;8.93;;
19374;SDS011;9823;50.936;4.046;2023-04-03T02:18:59;17.83;;;8.23;;
19374;SDS011;9823;50.936;4.046;2023-04-03T02:21:25;19.80;;;8.73;;
19374;SDS011;9823;50.936;4.046;2023-04-03T02:23:57;30.13;;;11.03;;
19374;SDS011;9823;50.936;4.046;2023-04-03T02:26:23;36.20;;;11.60;;
19374;SDS011;9823;50.936;4.046;2023-04-03T02:28:50;32.07;;;11.77;;
19374;SDS011;9823;50.936;4.046;2023-04-03T02:31:19;17.80;;;8.30;;
19374;SDS011;9823;50.936;4.046;2023-04-03T02:33:45;17.40;;;8.13;;
19374;SDS011;9823;50.936;4.046;2023-04-03T02:36:14;26.33;;;10.13;;
19374;SDS011;9823;50.936;4.046;2023-04-03T02:38:40;20.37;;;9.23;;
19374;SDS011;9823;50.936;4.046;2023-04-03T02:41:07;25.37;;;10.77;;
19374;SDS011;9823;50.936;4.046;2023-04-03T02:43:33;16.73;;;7.77;;
19374;SDS011;9823;50.936;4.046;2023-04-03T02:45:59;26.33;;;9.97;;
19374;SDS011;9823;50.936;4.046;2023-04-03T02:48:25;13.27;;;7.17;;
19374;SDS011;9823;50.936;4.046;2023-04-03T02:50:51;25.43;;;10.20;;
19374;SDS011;9823;50.936;4.046;2023-04-03T02:53:18;18.53;;;8.73;;
19374;SDS011;9823;50.936;4.046;2023-04-03T02:55:44;31.60;;;12.10;;
19374;SDS011;9823;50.936;4.046;2023-04-03T02:58:10;27.60;;;10.33;;
19374;SDS011;9823;50.936;4.046;2023-04-03T03:00:36;35.33;;;11.93;;
19374;SDS011;9823;50.936;4.046;2023-04-03T03:03:03;17.70;;;8.00;;
19374;SDS011;9823;50.936;4.046;2023-04-03T03:05:29;21.10;;;8.90;;
19374;SDS011;9823;50.936;4.046;2023-04-03T03:07:55;19.23;;;9.10;;
19374;SDS011;9823;50.936;4.046;2023-04-03T03:10:22;21.17;;;9.20;;
19374;SDS011;9823;50.936;4.046;2023-04-03T03:12:48;23.97;;;10.23;;
19374;SDS011;9823;50.936;4.046;2023-04-03T03:15:14;43.23;;;13.60;;
19374;SDS011;9823;50.936;4.046;2023-04-03T03:17:42;13.97;;;8.07;;
19374;SDS011;9823;50.936;4.046;2023-04-03T03:20:10;20.10;;;7.70;;
19374;SDS011;9823;50.936;4.046;2023-04-03T03:22:37;18.93;;;8.80;;
19374;SDS011;9823;50.936;4.046;2023-04-03T03:25:06;22.17;;;10.60;;
19374;SDS011;9823;50.936;4.046;2023-04-03T03:27:36;30.77;;;11.47;;
19374;SDS011;9823;50.936;4.046;2023-04-03T03:30:05;19.83;;;9.27;;
19374;SDS011;9823;50.936;4.046;2023-04-03T03:32:31;22.17;;;8.67;;
19374;SDS011;9823;50.936;4.046;2023-04-03T03:34:57;27.97;;;10.07;;
19374;SDS011;9823;50.936;4.046;2023-04-03T03:37:23;19.90;;;9.17;;
19374;SDS011;9823;50.936;4.046;2023-04-03T03:39:49;20.30;;;10.93;;
19374;SDS011;9823;50.936;4.046;2023-04-03T03:42:15;21.63;;;10.03;;
19374;SDS011;9823;50.936;4.046;2023-04-03T03:44:41;25.27;;;10.07;;
19374;SDS011;9823;50.936;4.046;2023-04-03T03:47:07;28.13;;;10.00;;
19374;SDS011;9823;50.936;4.046;2023-04-03T03:49:35;16.17;;;9.00;;
19374;SDS011;9823;50.936;4.046;2023-04-03T03:52:01;40.30;;;13.47;;
19374;SDS011;9823;50.936;4.046;2023-04-03T03:54:27;21.97;;;9.67;;
19374;SDS011;9823;50.936;4.046;2023-04-03T03:56:53;21.30;;;9.33;;
19374;SDS011;9823;50.936;4.046;2023-04-03T03:59:19;20.10;;;8.90;;
19374;SDS011;9823;50.936;4.046;2023-04-03T04:01:45;26.43;;;11.40;;
19374;SDS011;9823;50.936;4.046;2023-04-03T04:04:14;15.20;;;8.70;;
19374;SDS011;9823;50.936;4.046;2023-04-03T04:06:40;25.77;;;8.80;;
19374;SDS011;9823;50.936;4.046;2023-04-03T04:09:06;17.30;;;9.43;;
19374;SDS011;9823;50.936;4.046;2023-04-03T04:11:34;15.90;;;9.07;;
19374;SDS011;9823;50.936;4.046;2023-04-03T04:14:00;19.43;;;10.20;;
19374;SDS011;9823;50.936;4.046;2023-04-03T04:16:26;16.23;;;9.60;;
19374;SDS011;9823;50.936;4.046;2023-04-03T04:18:52;24.93;;;10.73;;
19374;SDS011;9823;50.936;4.046;2023-04-03T04:21:20;13.43;;;8.70;;
19374;SDS011;9823;50.936;4.046;2023-04-03T04:23:46;23.77;;;9.93;;
19374;SDS011;9823;50.936;4.046;2023-04-03T04:26:15;22.20;;;10.37;;
19374;SDS011;9823;50.936;4.046;2023-04-03T04:28:41;21.90;;;10.27;;
19374;SDS011;9823;50.936;4.046;2023-04-03T04:31:09;19.33;;;8.80;;
19374;SDS011;9823;50.936;4.046;2023-04-03T04:33:35;21.47;;;9.87;;
19374;SDS011;9823;50.936;4.046;2023-04-03T04:36:03;29.13;;;12.13;;
19374;SDS011;9823;50.936;4.046;2023-04-03T04:38:29;13.77;;;8.87;;
19374;SDS011;9823;50.936;4.046;2023-04-03T04:40:55;23.60;;;9.70;;
19374;SDS011;9823;50.936;4.046;2023-04-03T04:43:21;17.70;;;9.37;;
19374;SDS011;9823;50.936;4.046;2023-04-03T04:45:47;19.70;;;10.40;;
19374;SDS011;9823;50.936;4.046;2023-04-03T04:48:13;24.37;;;11.93;;
19374;SDS011;9823;50.936;4.046;2023-04-03T04:50:46;24.57;;;11.50;;
19374;SDS011;9823;50.936;4.046;2023-04-03T04:53:12;23.40;;;11.13;;
19374;SDS011;9823;50.936;4.046;2023-04-03T04:55:41;16.43;;;8.73;;
19374;SDS011;9823;50.936;4.046;2023-04-03T04:58:09;24.50;;;11.03;;
19374;SDS011;9823;50.936;4.046;2023-04-03T05:00:38;18.93;;;10.13;;
19374;SDS011;9823;50.936;4.046;2023-04-03T05:03:04;24.53;;;11.07;;
19374;SDS011;9823;50.936;4.046;2023-04-03T05:05:32;21.87;;;11.07;;
19374;SDS011;9823;50.936;4.046;2023-04-03T05:08:01;19.73;;;9.47;;
19374;SDS011;9823;50.936;4.046;2023-04-03T05:10:28;24.10;;;10.10;;
19374;SDS011;9823;50.936;4.046;2023-04-03T05:12:56;22.43;;;10.03;;
19374;SDS011;9823;50.936;4.046;2023-04-03T05:15:27;20.20;;;10.73;;
19374;SDS011;9823;50.936;4.046;2023-04-03T05:17:53;21.33;;;11.00;;
19374;SDS011;9823;50.936;4.046;2023-04-03T05:20:19;22.27;;;11.73;;
19374;SDS011;9823;50.936;4.046;2023-04-03T05:22:45;19.57;;;11.50;;
19374;SDS011;9823;50.936;4.046;2023-04-03T05:25:11;15.03;;;9.20;;
19374;SDS011;9823;50.936;4.046;2023-04-03T05:27:37;18.83;;;10.27;;
19374;SDS011;9823;50.936;4.046;2023-04-03T05:30:03;21.70;;;11.00;;
19374;SDS011;9823;50.936;4.046;2023-04-03T05:32:32;21.90;;;11.03;;
19374;SDS011;9823;50.936;4.046;2023-04-03T05:34:58;21.30;;;10.97;;
19374;SDS011;9823;50.936;4.046;2023-04-03T05:37:24;22.40;;;11.00;;
19374;SDS011;9823;50.936;4.046;2023-04-03T05:39:50;19.50;;;10.17;;
19374;SDS011;9823;50.936;4.046;2023-04-03T05:42:17;20.43;;;10.20;;
19374;SDS011;9823;50.936;4.046;2023-04-03T05:44:43;18.83;;;10.50;;
19374;SDS011;9823;50.936;4.046;2023-04-03T05:47:11;23.07;;;11.80;;
19374;SDS011;9823;50.936;4.046;2023-04-03T05:49:37;20.57;;;11.60;;
19374;SDS011;9823;50.936;4.046;2023-04-03T05:52:05;22.33;;;11.70;;
19374;SDS011;9823;50.936;4.046;2023-04-03T05:54:32;18.53;;;11.30;;
19374;SDS011;9823;50.936;4.046;2023-04-03T05:57:00;29.63;;;12.40;;
19374;SDS011;9823;50.936;4.046;2023-04-03T05:59:26;19.60;;;10.50;;
19374;SDS011;9823;50.936;4.046;2023-04-03T06:01:54;19.37;;;9.83;;
19374;SDS011;9823;50.936;4.046;2023-04-03T06:04:21;21.13;;;10.13;;
19374;SDS011;9823;50.936;4.046;2023-04-03T06:06:48;19.43;;;10.23;;
19374;SDS011;9823;50.936;4.046;2023-04-03T06:09:16;25.33;;;13.43;;
19374;SDS011;9823;50.936;4.046;2023-04-03T06:11:45;18.03;;;11.27;;
19374;SDS011;9823;50.936;4.046;2023-04-03T06:14:13;16.83;;;10.13;;
19374;SDS011;9823;50.936;4.046;2023-04-03T06:16:42;18.60;;;9.83;;
19374;SDS011;9823;50.936;4.046;2023-04-03T06:19:09;21.07;;;11.70;;
19374;SDS011;9823;50.936;4.046;2023-04-03T06:21:37;18.03;;;10.40;;
19374;SDS011;9823;50.936;4.046;2023-04-03T06:24:03;26.33;;;12.67;;
19374;SDS011;9823;50.936;4.046;2023-04-03T06:26:30;15.50;;;9.03;;
19374;SDS011;9823;50.936;4.046;2023-04-03T06:28:56;14.43;;;9.43;;
19374;SDS011;9823;50.936;4.046;2023-04-03T06:31:22;30.30;;;11.97;;
19374;SDS011;9823;50.936;4.046;2023-04-03T06:33:48;18.50;;;9.93;;
19374;SDS011;9823;50.936;4.046;2023-04-03T06:36:14;18.10;;;10.27;;
19374;SDS011;9823;50.936;4.046;2023-04-03T06:38:47;25.60;;;11.53;;
19374;SDS011;9823;50.936;4.046;2023-04-03T06:41:13;35.73;;;13.73;;
19374;SDS011;9823;50.936;4.046;2023-04-03T06:43:39;101.27;;;28.77;;
19374;SDS011;9823;50.936;4.046;2023-04-03T06:46:05;99.40;;;29.27;;
19374;SDS011;9823;50.936;4.046;2023-04-03T06:48:34;29.77;;;13.47;;
19374;SDS011;9823;50.936;4.046;2023-04-03T06:51:01;108.60;;;29.20;;
19374;SDS011;9823;50.936;4.046;2023-04-03T06:53:27;36.57;;;15.23;;
19374;SDS011;9823;50.936;4.046;2023-04-03T06:55:53;27.20;;;11.77;;
19374;SDS011;9823;50.936;4.046;2023-04-03T06:58:19;22.60;;;11.70;;
19374;SDS011;9823;50.936;4.046;2023-04-03T07:00:45;49.93;;;17.57;;
19374;SDS011;9823;50.936;4.046;2023-04-03T07:03:12;28.37;;;12.73;;
19374;SDS011;9823;50.936;4.046;2023-04-03T07:05:38;26.27;;;12.83;;
19374;SDS011;9823;50.936;4.046;2023-04-03T07:08:04;21.70;;;11.80;;
19374;SDS011;9823;50.936;4.046;2023-04-03T07:10:31;34.63;;;14.33;;
19374;SDS011;9823;50.936;4.046;2023-04-03T07:12:57;53.97;;;17.57;;
19374;SDS011;9823;50.936;4.046;2023-04-03T07:15:26;39.47;;;14.60;;
19374;SDS011;9823;50.936;4.046;2023-04-03T07:17:53;49.00;;;17.00;;
19374;SDS011;9823;50.936;4.046;2023-04-03T07:20:19;38.83;;;15.50;;
19374;SDS011;9823;50.936;4.046;2023-04-03T07:22:45;60.50;;;20.33;;
19374;SDS011;9823;50.936;4.046;2023-04-03T07:25:11;42.67;;;15.57;;
19374;SDS011;9823;50.936;4.046;2023-04-03T07:27:39;45.67;;;15.90;;
19374;SDS011;9823;50.936;4.046;2023-04-03T07:30:08;26.10;;;11.87;;
19374;SDS011;9823;50.936;4.046;2023-04-03T07:32:34;25.17;;;11.87;;
19374;SDS011;9823;50.936;4.046;2023-04-03T07:35:00;27.17;;;12.60;;
19374;SDS011;9823;50.936;4.046;2023-04-03T07:37:26;21.10;;;10.17;;
19374;SDS011;9823;50.936;4.046;2023-04-03T07:39:52;23.57;;;11.97;;
19374;SDS011;9823;50.936;4.046;2023-04-03T07:42:22;16.70;;;9.83;;
19374;SDS011;9823;50.936;4.046;2023-04-03T07:44:51;23.83;;;12.23;;
19374;SDS011;9823;50.936;4.046;2023-04-03T07:47:18;21.37;;;9.20;;
19374;SDS011;9823;50.936;4.046;2023-04-03T07:49:46;30.23;;;13.27;;
19374;SDS011;9823;50.936;4.046;2023-04-03T07:52:15;22.57;;;10.77;;
19374;SDS011;9823;50.936;4.046;2023-04-03T07:54:41;24.17;;;11.90;;
19374;SDS011;9823;50.936;4.046;2023-04-03T07:57:07;17.13;;;10.00;;
19374;SDS011;9823;50.936;4.046;2023-04-03T07:59:36;23.83;;;11.97;;
19374;SDS011;9823;50.936;4.046;2023-04-03T08:02:09;16.07;;;9.53;;
19374;SDS011;9823;50.936;4.046;2023-04-03T08:04:35;16.73;;;9.33;;
19374;SDS011;9823;50.936;4.046;2023-04-03T08:07:01;15.30;;;9.03;;
19374;SDS011;9823;50.936;4.046;2023-04-03T08:09:30;19.87;;;8.17;;
19374;SDS011;9823;50.936;4.046;2023-04-03T08:11:58;20.10;;;11.17;;
19374;SDS011;9823;50.936;4.046;2023-04-03T08:14:26;19.83;;;9.03;;
19374;SDS011;9823;50.936;4.046;2023-04-03T08:16:52;13.53;;;8.67;;
19374;SDS011;9823;50.936;4.046;2023-04-03T08:19:18;13.60;;;8.23;;
19374;SDS011;9823;50.936;4.046;2023-04-03T08:21:44;15.70;;;8.97;;
19374;SDS011;9823;50.936;4.046;2023-04-03T08:24:20;13.10;;;7.50;;
19374;SDS011;9823;50.936;4.046;2023-04-03T08:26:46;12.87;;;6.10;;
19374;SDS011;9823;50.936;4.046;2023-04-03T08:29:18;14.30;;;7.03;;
19374;SDS011;9823;50.936;4.046;2023-04-03T08:31:51;11.67;;;7.37;;
19374;SDS011;9823;50.936;4.046;2023-04-03T08:34:17;14.07;;;8.17;;
19374;SDS011;9823;50.936;4.046;2023-04-03T08:36:46;30.87;;;14.00;;
19374;SDS011;9823;50.936;4.046;2023-04-03T08:39:15;19.80;;;10.27;;
19374;SDS011;9823;50.936;4.046;2023-04-03T08:41:43;24.93;;;11.00;;
19374;SDS011;9823;50.936;4.046;2023-04-03T08:44:15;16.40;;;8.93;;
19374;SDS011;9823;50.936;4.046;2023-04-03T08:49:29;17.63;;;8.30;;
19374;SDS011;9823;50.936;4.046;2023-04-03T08:51:57;16.80;;;8.37;;
19374;SDS011;9823;50.936;4.046;2023-04-03T08:54:29;21.53;;;10.37;;
19374;SDS011;9823;50.936;4.046;2023-04-03T08:56:56;27.60;;;11.27;;
19374;SDS011;9823;50.936;4.046;2023-04-03T08:59:25;16.73;;;7.00;;
19374;SDS011;9823;50.936;4.046;2023-04-03T09:01:56;16.53;;;8.87;;
19374;SDS011;9823;50.936;4.046;2023-04-03T09:04:23;14.03;;;7.57;;
19374;SDS011;9823;50.936;4.046;2023-04-03T09:06:54;16.93;;;8.27;;
19374;SDS011;9823;50.936;4.046;2023-04-03T09:09:31;27.87;;;11.70;;
19374;SDS011;9823;50.936;4.046;2023-04-03T09:22:54;9.27;;;5.70;;
19374;SDS011;9823;50.936;4.046;2023-04-03T09:25:27;14.47;;;6.80;;
19374;SDS011;9823;50.936;4.046;2023-04-03T09:27:53;12.03;;;5.63;;
19374;SDS011;9823;50.936;4.046;2023-04-03T09:30:24;14.03;;;7.87;;
19374;SDS011;9823;50.936;4.046;2023-04-03T09:32:57;11.63;;;4.90;;
19374;SDS011;9823;50.936;4.046;2023-04-03T09:37:50;10.80;;;5.13;;
19374;SDS011;9823;50.936;4.046;2023-04-03T09:42:53;15.80;;;7.27;;
19374;SDS011;9823;50.936;4.046;2023-04-03T09:45:29;18.57;;;6.70;;
19374;SDS011;9823;50.936;4.046;2023-04-03T09:51:04;15.70;;;7.63;;
19374;SDS011;9823;50.936;4.046;2023-04-03T09:53:39;10.43;;;4.47;;
19374;SDS011;9823;50.936;4.046;2023-04-03T09:58:42;11.20;;;4.03;;
19374;SDS011;9823;50.936;4.046;2023-04-03T10:03:54;9.87;;;4.00;;
19374;SDS011;9823;50.936;4.046;2023-04-03T10:06:29;12.43;;;5.50;;
19374;SDS011;9823;50.936;4.046;2023-04-03T10:08:59;18.10;;;6.37;;
19374;SDS011;9823;50.936;4.046;2023-04-03T10:11:26;10.17;;;4.53;;
19374;SDS011;9823;50.936;4.046;2023-04-03T10:13:59;13.47;;;3.93;;
19374;SDS011;9823;50.936;4.046;2023-04-03T10:23:54;11.33;;;3.83;;
19374;SDS011;9823;50.936;4.046;2023-04-03T10:26:29;21.73;;;6.73;;
19374;SDS011;9823;50.936;4.046;2023-04-03T10:31:31;18.93;;;5.67;;
19374;SDS011;9823;50.936;4.046;2023-04-03T10:46:44;11.13;;;4.03;;
19374;SDS011;9823;50.936;4.046;2023-04-03T10:49:17;13.70;;;5.73;;
19374;SDS011;9823;50.936;4.046;2023-04-03T10:51:48;18.97;;;6.17;;
19374;SDS011;9823;50.936;4.046;2023-04-03T10:57:01;11.83;;;4.37;;
19374;SDS011;9823;50.936;4.046;2023-04-03T10:59:32;11.37;;;4.53;;
19374;SDS011;9823;50.936;4.046;2023-04-03T11:02:14;12.80;;;5.63;;
19374;SDS011;9823;50.936;4.046;2023-04-03T11:04:44;10.00;;;3.90;;
19374;SDS011;9823;50.936;4.046;2023-04-03T11:07:14;24.70;;;5.03;;
19374;SDS011;9823;50.936;4.046;2023-04-03T11:09:42;9.93;;;4.57;;
19374;SDS011;9823;50.936;4.046;2023-04-03T11:12:14;13.93;;;6.20;;
19374;SDS011;9823;50.936;4.046;2023-04-03T11:14:41;12.33;;;4.77;;
19374;SDS011;9823;50.936;4.046;2023-04-03T11:22:29;10.47;;;2.87;;
19374;SDS011;9823;50.936;4.046;2023-04-03T11:27:48;9.90;;;3.37;;
19374;SDS011;9823;50.936;4.046;2023-04-03T11:30:21;11.10;;;3.67;;
19374;SDS011;9823;50.936;4.046;2023-04-03T11:35:33;17.37;;;6.60;;
19374;SDS011;9823;50.936;4.046;2023-04-03T11:38:01;9.57;;;4.37;;
19374;SDS011;9823;50.936;4.046;2023-04-03T11:40:32;6.17;;;2.53;;
19374;SDS011;9823;50.936;4.046;2023-04-03T11:43:05;8.60;;;2.83;;
19374;SDS011;9823;50.936;4.046;2023-04-03T11:45:36;8.97;;;2.57;;
19374;SDS011;9823;50.936;4.046;2023-04-03T11:48:09;9.50;;;3.83;;
19374;SDS011;9823;50.936;4.046;2023-04-03T11:50:48;13.23;;;3.70;;
19374;SDS011;9823;50.936;4.046;2023-04-03T11:55:42;6.20;;;2.60;;
19374;SDS011;9823;50.936;4.046;2023-04-03T11:58:13;12.70;;;4.70;;
19374;SDS011;9823;50.936;4.046;2023-04-03T12:06:41;3.47;;;1.87;;
19374;SDS011;9823;50.936;4.046;2023-04-03T12:11:23;13.77;;;3.83;;
19374;SDS011;9823;50.936;4.046;2023-04-03T12:29:33;8.13;;;3.13;;
19374;SDS011;9823;50.936;4.046;2023-04-03T12:42:38;14.57;;;3.23;;
19374;SDS011;9823;50.936;4.046;2023-04-03T12:45:17;12.07;;;3.27;;
19374;SDS011;9823;50.936;4.046;2023-04-03T12:47:45;15.37;;;3.60;;
19374;SDS011;9823;50.936;4.046;2023-04-03T12:50:30;13.10;;;3.20;;
19374;SDS011;9823;50.936;4.046;2023-04-03T12:53:11;10.30;;;2.40;;
19374;SDS011;9823;50.936;4.046;2023-04-03T12:55:40;48.80;;;11.53;;
19374;SDS011;9823;50.936;4.046;2023-04-03T12:58:23;15.53;;;3.83;;
19374;SDS011;9823;50.936;4.046;2023-04-03T13:01:03;5.33;;;1.93;;
19374;SDS011;9823;50.936;4.046;2023-04-03T13:03:32;14.13;;;3.50;;
19374;SDS011;9823;50.936;4.046;2023-04-03T13:05:59;10.03;;;2.83;;
19374;SDS011;9823;50.936;4.046;2023-04-03T13:08:26;13.87;;;3.20;;
19374;SDS011;9823;50.936;4.046;2023-04-03T13:11:01;6.77;;;2.93;;
19374;SDS011;9823;50.936;4.046;2023-04-03T13:13:27;4.83;;;1.90;;
19374;SDS011;9823;50.936;4.046;2023-04-03T13:15:53;11.23;;;4.40;;
19374;SDS011;9823;50.936;4.046;2023-04-03T13:18:27;7.33;;;2.97;;
19374;SDS011;9823;50.936;4.046;2023-04-03T13:20:56;5.33;;;2.07;;
19374;SDS011;9823;50.936;4.046;2023-04-03T13:23:25;9.97;;;3.77;;
19374;SDS011;9823;50.936;4.046;2023-04-03T13:25:53;6.87;;;2.47;;
19374;SDS011;9823;50.936;4.046;2023-04-03T13:28:23;11.23;;;2.97;;
19374;SDS011;9823;50.936;4.046;2023-04-03T13:33:29;10.90;;;3.50;;
19374;SDS011;9823;50.936;4.046;2023-04-03T13:35:57;9.53;;;3.00;;
19374;SDS011;9823;50.936;4.046;2023-04-03T13:38:28;9.20;;;2.97;;
19374;SDS011;9823;50.936;4.046;2023-04-03T13:40:58;18.77;;;4.87;;
19374;SDS011;9823;50.936;4.046;2023-04-03T13:43:33;44.07;;;11.10;;
19374;SDS011;9823;50.936;4.046;2023-04-03T13:49:16;4.83;;;2.00;;
19374;SDS011;9823;50.936;4.046;2023-04-03T13:51:27;6.53;;;2.40;;
19374;SDS011;9823;50.936;4.046;2023-04-03T13:54:16;10.03;;;3.20;;
19374;SDS011;9823;50.936;4.046;2023-04-03T13:56:43;8.27;;;2.43;;
19374;SDS011;9823;50.936;4.046;2023-04-03T14:04:21;5.00;;;1.53;;
19374;SDS011;9823;50.936;4.046;2023-04-03T14:06:48;12.63;;;3.40;;
19374;SDS011;9823;50.936;4.046;2023-04-03T14:09:15;25.17;;;7.23;;
19374;SDS011;9823;50.936;4.046;2023-04-03T14:11:41;5.50;;;2.17;;
19374;SDS011;9823;50.936;4.046;2023-04-03T14:14:40;11.17;;;2.40;;
19374;SDS011;9823;50.936;4.046;2023-04-03T14:17:05;9.37;;;3.13;;
19374;SDS011;9823;50.936;4.046;2023-04-03T14:19:38;5.87;;;2.57;;
19374;SDS011;9823;50.936;4.046;2023-04-03T14:24:42;9.17;;;3.57;;
19374;SDS011;9823;50.936;4.046;2023-04-03T14:29:49;8.33;;;2.83;;
19374;SDS011;9823;50.936;4.046;2023-04-03T14:32:16;7.83;;;2.97;;
19374;SDS011;9823;50.936;4.046;2023-04-03T14:34:43;9.37;;;3.30;;
19374;SDS011;9823;50.936;4.046;2023-04-03T14:37:10;7.80;;;3.87;;
19374;SDS011;9823;50.936;4.046;2023-04-03T14:39:42;7.47;;;2.60;;
19374;SDS011;9823;50.936;4.046;2023-04-03T14:42:12;10.97;;;4.70;;
19374;SDS011;9823;50.936;4.046;2023-04-03T14:44:38;8.43;;;2.23;;
19374;SDS011;9823;50.936;4.046;2023-04-03T14:47:05;41.40;;;9.30;;
19374;SDS011;9823;50.936;4.046;2023-04-03T14:49:34;14.63;;;4.87;;
19374;SDS011;9823;50.936;4.046;2023-04-03T14:52:00;11.80;;;2.53;;
19374;SDS011;9823;50.936;4.046;2023-04-03T14:54:26;10.03;;;3.50;;
19374;SDS011;9823;50.936;4.046;2023-04-03T14:57:00;6.50;;;2.27;;
19374;SDS011;9823;50.936;4.046;2023-04-03T14:59:27;11.03;;;2.80;;
19374;SDS011;9823;50.936;4.046;2023-04-03T15:01:53;48.70;;;12.07;;
19374;SDS011;9823;50.936;4.046;2023-04-03T15:04:22;19.27;;;5.00;;
19374;SDS011;9823;50.936;4.046;2023-04-03T15:06:48;9.33;;;2.50;;
19374;SDS011;9823;50.936;4.046;2023-04-03T15:11:42;34.03;;;8.77;;
19374;SDS011;9823;50.936;4.046;2023-04-03T15:14:11;7.63;;;2.90;;
19374;SDS011;9823;50.936;4.046;2023-04-03T15:16:37;11.13;;;3.50;;
19374;SDS011;9823;50.936;4.046;2023-04-03T15:19:03;7.47;;;2.47;;
19374;SDS011;9823;50.936;4.046;2023-04-03T15:21:31;7.93;;;2.87;;
19374;SDS011;9823;50.936;4.046;2023-04-03T15:24:01;6.73;;;3.10;;
19374;SDS011;9823;50.936;4.046;2023-04-03T15:26:27;3.60;;;2.00;;
19374;SDS011;9823;50.936;4.046;2023-04-03T15:28:55;7.90;;;2.70;;
19374;SDS011;9823;50.936;4.046;2023-04-03T15:31:24;9.53;;;3.30;;
19374;SDS011;9823;50.936;4.046;2023-04-03T15:33:52;4.63;;;2.10;;
19374;SDS011;9823;50.936;4.046;2023-04-03T15:36:18;10.33;;;3.40;;
19374;SDS011;9823;50.936;4.046;2023-04-03T15:38:44;10.80;;;2.93;;
19374;SDS011;9823;50.936;4.046;2023-04-03T15:41:13;6.37;;;2.20;;
19374;SDS011;9823;50.936;4.046;2023-04-03T15:43:41;12.57;;;3.47;;
19374;SDS011;9823;50.936;4.046;2023-04-03T15:46:16;11.53;;;2.47;;
19374;SDS011;9823;50.936;4.046;2023-04-03T15:48:42;9.03;;;2.90;;
19374;SDS011;9823;50.936;4.046;2023-04-03T15:51:12;4.50;;;2.10;;
19374;SDS011;9823;50.936;4.046;2023-04-03T15:53:38;6.97;;;2.87;;
19374;SDS011;9823;50.936;4.046;2023-04-03T15:56:07;6.23;;;2.87;;
19374;SDS011;9823;50.936;4.046;2023-04-03T15:58:34;6.80;;;2.73;;
19374;SDS011;9823;50.936;4.046;2023-04-03T16:01:00;6.50;;;2.43;;
19374;SDS011;9823;50.936;4.046;2023-04-03T16:03:27;7.77;;;2.60;;
19374;SDS011;9823;50.936;4.046;2023-04-03T16:05:58;13.70;;;3.93;;
19374;SDS011;9823;50.936;4.046;2023-04-03T16:08:27;9.43;;;2.73;;
19374;SDS011;9823;50.936;4.046;2023-04-03T16:10:53;25.80;;;7.03;;
19374;SDS011;9823;50.936;4.046;2023-04-03T16:13:21;14.83;;;3.70;;
19374;SDS011;9823;50.936;4.046;2023-04-03T16:15:50;9.20;;;2.97;;
19374;SDS011;9823;50.936;4.046;2023-04-03T16:18:16;5.10;;;2.47;;
19374;SDS011;9823;50.936;4.046;2023-04-03T16:20:45;13.37;;;4.80;;
19374;SDS011;9823;50.936;4.046;2023-04-03T16:23:11;6.80;;;3.27;;
19374;SDS011;9823;50.936;4.046;2023-04-03T16:25:39;6.87;;;2.93;;
19374;SDS011;9823;50.936;4.046;2023-04-03T16:28:10;7.33;;;2.10;;
19374;SDS011;9823;50.936;4.046;2023-04-03T16:30:36;17.73;;;5.73;;
19374;SDS011;9823;50.936;4.046;2023-04-03T16:33:03;8.30;;;3.57;;
19374;SDS011;9823;50.936;4.046;2023-04-03T16:35:29;10.63;;;3.80;;
19374;SDS011;9823;50.936;4.046;2023-04-03T16:38:00;16.43;;;5.00;;
19374;SDS011;9823;50.936;4.046;2023-04-03T16:40:28;7.70;;;4.07;;
19374;SDS011;9823;50.936;4.046;2023-04-03T16:42:54;12.77;;;4.57;;
19374;SDS011;9823;50.936;4.046;2023-04-03T16:45:23;6.60;;;2.40;;
19374;SDS011;9823;50.936;4.046;2023-04-03T16:47:49;11.63;;;4.20;;
19374;SDS011;9823;50.936;4.046;2023-04-03T16:50:17;10.77;;;3.20;;
19374;SDS011;9823;50.936;4.046;2023-04-03T16:52:45;25.27;;;6.13;;
19374;SDS011;9823;50.936;4.046;2023-04-03T16:55:11;4.63;;;1.90;;
19374;SDS011;9823;50.936;4.046;2023-04-03T16:57:37;18.13;;;5.00;;